Time;durP1;ratioP1;P1;durP2;ratioP2;P2;SDS_P1;SDS_P2;PMS_P1;PMS_P2;Temp;Humidity;BMP_temperature;BMP_pressure;BME280_temperature;BME280_humidity;BME280_pressure;Samples;Min_cycle;Max_cycle;Signal;HPM_P1;HPM_P2
2020/12/12 16:16:29;;;;;;;76.90;30.75;;;7.60;99.90;;;;;;5081818;28;20331;-58
2020/12/12 16:18:55;;;;;;;80.43;34.67;;;7.60;99.90;;;;;;5061567;28;20031;-54
2020/12/12 16:21:21;;;;;;;79.18;33.00;;;7.60;99.90;;;;;;5061819;28;20119;-54
2020/12/12 16:23:46;;;;;;;80.05;34.75;;;7.60;99.90;;;;;;5056897;28;20052;-53
2020/12/12 16:26:12;;;;;;;78.13;35.92;;;7.60;99.90;;;;;;5039121;28;20381;-57
2020/12/12 16:28:38;;;;;;;78.70;35.03;;;7.60;99.90;;;;;;5051380;28;20033;-51
2020/12/12 16:31:05;;;;;;;75.43;34.80;;;7.60;99.90;;;;;;5043316;28;20033;-55
2020/12/12 16:33:31;;;;;;;78.75;33.72;;;7.60;99.90;;;;;;5041069;28;20413;-56
2020/12/12 16:35:56;;;;;;;77.80;35.13;;;7.60;99.90;;;;;;5040675;28;20049;-52
2020/12/12 16:38:23;;;;;;;78.18;32.35;;;7.70;99.90;;;;;;5041140;28;20103;-56
2020/12/12 16:40:49;;;;;;;73.70;31.85;;;7.70;99.90;;;;;;5035418;28;20037;-56
2020/12/12 16:43:15;;;;;;;61.70;30.77;;;7.70;99.90;;;;;;5033590;28;20044;-56
2020/12/12 16:45:43;;;;;;;60.20;29.90;;;7.70;99.90;;;;;;5055331;28;20033;-56
2020/12/12 16:48:09;;;;;;;66.75;31.63;;;7.80;99.90;;;;;;5047288;28;20029;-56
2020/12/12 16:50:35;;;;;;;64.82;30.45;;;7.80;99.90;;;;;;5038475;28;20033;-53
2020/12/12 16:53:01;;;;;;;75.78;31.20;;;7.80;99.90;;;;;;5018547;28;20481;-53
2020/12/12 16:55:28;;;;;;;59.55;27.65;;;7.70;99.90;;;;;;5036069;28;20064;-55
2020/12/12 16:57:54;;;;;;;63.83;30.00;;;7.80;99.90;;;;;;5049810;28;20032;-56
2020/12/12 17:00:22;;;;;;;69.72;29.55;;;7.80;99.90;;;;;;5036780;28;20033;-58
2020/12/12 17:02:49;;;;;;;58.83;28.60;;;7.80;99.90;;;;;;5040142;28;20029;-57
2020/12/12 17:05:15;;;;;;;63.25;30.40;;;7.80;99.90;;;;;;5055648;28;20057;-57
2020/12/12 17:07:46;;;;;;;56.55;28.25;;;7.80;99.90;;;;;;5040718;28;20014;-54
2020/12/12 17:10:14;;;;;;;51.10;27.40;;;7.80;99.90;;;;;;5041244;28;20084;-55
2020/12/12 17:12:39;;;;;;;56.17;28.35;;;7.90;99.90;;;;;;5040543;28;20028;-57
2020/12/12 17:15:08;;;;;;;55.30;27.15;;;7.90;99.90;;;;;;5040536;28;20051;-57
2020/12/12 17:17:34;;;;;;;73.07;29.42;;;7.90;99.90;;;;;;5040321;28;20068;-57
2020/12/12 17:20:00;;;;;;;59.67;28.08;;;7.80;99.90;;;;;;5041542;28;20064;-57
2020/12/12 17:22:25;;;;;;;59.92;29.27;;;7.80;99.90;;;;;;5040214;28;20059;-55
2020/12/12 17:24:51;;;;;;;56.60;26.33;;;7.80;99.90;;;;;;5040320;28;20053;-56
2020/12/12 17:27:17;;;;;;;60.75;29.20;;;7.90;99.90;;;;;;5029574;28;20029;-55
2020/12/12 17:29:43;;;;;;;62.10;29.13;;;7.80;99.90;;;;;;5027156;28;20061;-55
2020/12/12 17:32:09;;;;;;;62.00;29.60;;;7.80;99.90;;;;;;5011130;28;20534;-55
2020/12/12 17:34:35;;;;;;;67.43;28.48;;;7.80;99.90;;;;;;5027034;28;20056;-54
2020/12/12 17:37:01;;;;;;;59.45;26.90;;;7.80;99.90;;;;;;5027736;28;20037;-57
2020/12/12 17:39:27;;;;;;;57.45;28.23;;;7.80;99.90;;;;;;5027219;28;20041;-57
2020/12/12 17:41:53;;;;;;;56.22;28.02;;;7.70;99.90;;;;;;5027108;28;20381;-54
2020/12/12 17:44:19;;;;;;;50.70;26.40;;;7.80;99.90;;;;;;5027985;28;20041;-55
2020/12/12 17:46:45;;;;;;;59.83;27.63;;;7.80;99.90;;;;;;5027070;28;20036;-53
2020/12/12 17:49:11;;;;;;;55.70;26.83;;;7.70;99.90;;;;;;5042291;28;20386;-56
2020/12/12 17:51:38;;;;;;;55.53;29.15;;;7.70;99.90;;;;;;5026508;28;20037;-58
2020/12/12 17:54:05;;;;;;;59.08;28.33;;;7.70;99.90;;;;;;5027071;28;20091;-57
2020/12/12 17:56:31;;;;;;;58.38;28.05;;;7.70;99.90;;;;;;5025608;28;20056;-58
2020/12/12 17:58:57;;;;;;;57.35;26.33;;;7.70;99.90;;;;;;5026892;28;20029;-59
2020/12/12 18:01:22;;;;;;;51.83;27.25;;;7.70;99.90;;;;;;5027266;28;20207;-58
2020/12/12 18:03:48;;;;;;;59.03;28.48;;;7.80;99.90;;;;;;5027353;28;20060;-59
2020/12/12 18:06:14;;;;;;;54.10;29.33;;;7.80;99.90;;;;;;5026215;28;20158;-59
2020/12/12 18:08:39;;;;;;;55.13;27.67;;;7.80;99.90;;;;;;5026456;28;20038;-57
2020/12/12 18:11:05;;;;;;;59.78;27.77;;;7.80;99.90;;;;;;5028263;28;20029;-59
2020/12/12 18:13:31;;;;;;;62.20;30.75;;;7.70;99.90;;;;;;5028022;28;20502;-57
2020/12/12 18:15:56;;;;;;;60.13;29.33;;;7.70;99.90;;;;;;5027295;28;20041;-55
2020/12/12 18:18:22;;;;;;;59.38;29.63;;;7.70;99.90;;;;;;5026649;28;20207;-57
2020/12/12 18:20:49;;;;;;;60.55;28.33;;;7.70;99.90;;;;;;5026696;28;20468;-55
2020/12/12 18:23:14;;;;;;;57.60;29.63;;;7.70;99.90;;;;;;5027402;28;20026;-57
2020/12/12 18:25:40;;;;;;;60.90;30.42;;;7.70;99.90;;;;;;5027232;28;20512;-56
2020/12/12 18:28:06;;;;;;;60.83;29.17;;;7.70;99.90;;;;;;5026853;28;20041;-57
2020/12/12 18:30:31;;;;;;;64.55;29.27;;;7.70;99.90;;;;;;5033424;28;20036;-57
2020/12/12 18:32:57;;;;;;;68.35;31.33;;;7.70;99.90;;;;;;5024290;28;20025;-57
2020/12/12 18:35:25;;;;;;;58.63;28.27;;;7.70;99.90;;;;;;5024181;28;20528;-56
2020/12/12 18:37:52;;;;;;;62.33;30.95;;;7.70;99.90;;;;;;5025833;28;20025;-55
2020/12/12 18:40:19;;;;;;;63.97;30.20;;;7.70;99.90;;;;;;5026419;28;20025;-56
2020/12/12 18:42:45;;;;;;;60.30;28.02;;;7.70;99.90;;;;;;5026520;28;20052;-55
2020/12/12 18:45:13;;;;;;;58.38;27.13;;;7.70;99.90;;;;;;5026548;28;20090;-53
2020/12/12 18:47:40;;;;;;;58.97;28.75;;;7.70;99.90;;;;;;5027800;28;20047;-56
2020/12/12 18:50:07;;;;;;;65.22;30.60;;;7.70;99.90;;;;;;5030865;28;20104;-56
2020/12/12 18:52:33;;;;;;;63.45;30.27;;;7.70;99.90;;;;;;5026107;28;20034;-56
2020/12/12 18:54:59;;;;;;;58.42;28.50;;;7.60;99.90;;;;;;5025967;28;20084;-57
2020/12/12 18:57:24;;;;;;;62.42;30.90;;;7.60;99.90;;;;;;5026053;28;20037;-58
2020/12/12 18:59:50;;;;;;;52.20;27.83;;;7.60;99.90;;;;;;5028529;28;20355;-57
2020/12/12 19:02:20;;;;;;;66.10;29.55;;;7.60;99.90;;;;;;5029129;28;20111;-57
2020/12/12 19:04:46;;;;;;;59.38;30.85;;;7.60;99.90;;;;;;5027335;28;20033;-58
2020/12/12 19:07:13;;;;;;;72.63;30.73;;;7.60;99.90;;;;;;5025872;28;20358;-57
2020/12/12 19:09:39;;;;;;;68.78;31.10;;;7.60;99.90;;;;;;5026356;28;20044;-54
2020/12/12 19:12:11;;;;;;;63.63;28.08;;;7.60;99.90;;;;;;5041208;28;20029;-57
2020/12/12 19:14:37;;;;;;;59.70;30.48;;;7.60;99.90;;;;;;5039265;28;20037;-54
2020/12/12 19:17:03;;;;;;;67.38;29.02;;;7.70;99.90;;;;;;5025372;28;20029;-58
2020/12/12 19:19:29;;;;;;;73.43;31.08;;;7.70;99.90;;;;;;5026139;28;20411;-57
2020/12/12 19:21:54;;;;;;;57.38;28.70;;;7.70;99.90;;;;;;5025902;28;20060;-58
2020/12/12 19:24:21;;;;;;;62.05;29.73;;;7.70;99.90;;;;;;5041487;28;20414;-57
2020/12/12 19:26:47;;;;;;;55.15;27.40;;;7.70;99.90;;;;;;5023437;28;20076;-57
2020/12/12 19:29:14;;;;;;;62.10;29.88;;;7.70;99.90;;;;;;5026118;28;20058;-58
2020/12/12 19:31:40;;;;;;;57.33;26.98;;;7.70;99.90;;;;;;5025509;28;20033;-56
2020/12/12 19:34:06;;;;;;;52.92;26.55;;;7.80;99.90;;;;;;5025732;28;20420;-58
2020/12/12 19:36:33;;;;;;;52.60;27.92;;;7.80;99.90;;;;;;5025860;28;20030;-56
2020/12/12 19:38:59;;;;;;;54.75;27.52;;;7.80;99.90;;;;;;5028641;28;20029;-56
2020/12/12 19:41:25;;;;;;;62.15;28.23;;;7.80;99.90;;;;;;5027804;28;20159;-59
2020/12/12 19:43:52;;;;;;;59.15;28.67;;;7.70;99.90;;;;;;5024235;28;20112;-58
2020/12/12 19:46:22;;;;;;;65.00;29.33;;;7.70;99.90;;;;;;5023825;28;20036;-57
2020/12/12 19:48:48;;;;;;;68.20;32.05;;;7.70;99.90;;;;;;5022977;28;20044;-59
